createdAt,value
2016-09-24T00:00:29.894Z,975.56
2016-09-24T00:01:29.854Z,975.55
2016-09-24T00:02:29.819Z,975.6
2016-09-24T00:03:29.785Z,975.57
2016-09-24T00:04:29.748Z,975.57
2016-09-24T00:05:29.710Z,975.57
2016-09-24T00:06:29.674Z,975.57
2016-09-24T00:07:29.638Z,975.55
2016-09-24T00:08:29.603Z,975.57
2016-09-24T00:09:29.567Z,975.57
2016-09-24T00:10:29.531Z,975.58
2016-09-24T00:11:29.495Z,975.6
2016-09-24T00:12:29.460Z,975.56
2016-09-24T00:13:29.422Z,975.53
2016-09-24T00:14:29.388Z,975.53
2016-09-24T00:15:29.351Z,975.5
2016-09-24T00:16:29.313Z,975.46
2016-09-24T00:17:29.277Z,975.46
2016-09-24T00:18:29.241Z,975.45
2016-09-24T00:19:29.205Z,975.42
2016-09-24T00:20:29.170Z,975.46
2016-09-24T00:21:29.138Z,975.44
2016-09-24T00:22:29.098Z,975.45
2016-09-24T00:23:29.061Z,975.45
2016-09-24T00:24:29.025Z,975.47
2016-09-24T00:25:28.989Z,975.46
2016-09-24T00:26:28.953Z,975.47
2016-09-24T00:27:28.917Z,975.45
2016-09-24T00:28:28.886Z,975.44
2016-09-24T00:29:28.844Z,975.42
2016-09-24T00:30:28.810Z,975.42
2016-09-24T00:31:28.772Z,975.44
2016-09-24T00:32:28.736Z,975.43
2016-09-24T00:33:28.702Z,975.41
2016-09-24T00:34:28.663Z,975.39
2016-09-24T00:35:28.626Z,975.41
2016-09-24T00:36:28.590Z,975.41
2016-09-24T00:37:28.556Z,975.41
2016-09-24T00:38:28.518Z,975.38
2016-09-24T00:39:28.482Z,975.4
2016-09-24T00:40:28.445Z,975.39
2016-09-24T00:41:28.409Z,975.39
2016-09-24T00:42:28.371Z,975.39
2016-09-24T00:43:28.336Z,975.42
2016-09-24T00:44:28.301Z,975.43
2016-09-24T00:45:28.265Z,975.43
2016-09-24T00:46:28.227Z,975.42
2016-09-24T00:47:28.192Z,975.39
2016-09-24T00:48:28.157Z,975.45
2016-09-24T00:49:28.118Z,975.43
2016-09-24T00:50:28.084Z,975.42
2016-09-24T00:51:28.047Z,975.38
2016-09-24T00:52:28.012Z,975.4
2016-09-24T00:53:27.973Z,975.35
2016-09-24T00:54:27.939Z,975.37
2016-09-24T00:55:27.903Z,975.35
2016-09-24T00:56:27.864Z,975.36
2016-09-24T00:57:27.830Z,975.31
2016-09-24T00:58:27.793Z,975.26
2016-09-24T00:59:27.757Z,975.28
2016-09-24T01:00:27.720Z,975.26
2016-09-24T01:01:27.685Z,975.26
2016-09-24T01:02:27.647Z,975.28
2016-09-24T01:03:27.611Z,975.21
2016-09-24T01:04:27.574Z,975.27
2016-09-24T01:05:27.540Z,975.27
2016-09-24T01:06:27.501Z,975.22
2016-09-24T01:07:27.466Z,975.18
2016-09-24T01:08:27.430Z,975.2
2016-09-24T01:09:27.391Z,975.19
2016-09-24T01:10:27.356Z,975.2
2016-09-24T01:11:27.323Z,975.14
2016-09-24T01:12:27.284Z,975.1
2016-09-24T01:13:27.250Z,975.14
2016-09-24T01:14:27.210Z,975.11
2016-09-24T01:15:27.174Z,975.11
2016-09-24T01:16:27.141Z,975.13
2016-09-24T01:17:27.101Z,975.12
2016-09-24T01:18:27.064Z,975.09
2016-09-24T01:19:27.028Z,975.12
2016-09-24T01:20:26.991Z,975.13
2016-09-24T01:21:26.954Z,975.08
2016-09-24T01:22:26.918Z,975.13
2016-09-24T01:23:26.882Z,975.06
2016-09-24T01:24:26.845Z,975.13
2016-09-24T01:25:26.808Z,975.07
2016-09-24T01:26:26.773Z,975.1
2016-09-24T01:27:26.738Z,975.09
2016-09-24T01:28:26.700Z,975.05
2016-09-24T01:29:26.663Z,975.05
2016-09-24T01:30:26.627Z,975.04
2016-09-24T01:31:26.590Z,975.07
2016-09-24T01:32:26.553Z,975.07
2016-09-24T01:33:26.516Z,975.06
2016-09-24T01:34:26.480Z,975.06
2016-09-24T01:35:26.444Z,975.04
2016-09-24T01:36:26.406Z,975.04
2016-09-24T01:37:26.370Z,975.05
2016-09-24T01:38:26.334Z,975.06
2016-09-24T01:39:26.297Z,975.08
2016-09-24T01:40:26.259Z,975.08
2016-09-24T01:41:26.225Z,975.09
2016-09-24T01:42:26.189Z,975.04
2016-09-24T01:43:26.151Z,975.04
2016-09-24T01:44:26.113Z,975.02
2016-09-24T01:45:26.079Z,975.03
2016-09-24T01:46:26.041Z,974.99
2016-09-24T01:47:26.004Z,974.95
2016-09-24T01:48:25.967Z,974.96
2016-09-24T01:49:25.931Z,974.97
2016-09-24T01:50:25.895Z,974.96
2016-09-24T01:51:25.857Z,974.95
2016-09-24T01:52:25.820Z,974.91
2016-09-24T01:53:25.784Z,974.92
2016-09-24T01:54:25.748Z,974.89
2016-09-24T01:55:25.712Z,974.88
2016-09-24T01:56:25.675Z,974.92
2016-09-24T01:57:25.638Z,974.87
2016-09-24T01:58:25.600Z,974.91
2016-09-24T01:59:25.565Z,974.9
2016-09-24T02:00:25.528Z,974.85
2016-09-24T02:01:25.491Z,974.89
2016-09-24T02:02:25.455Z,974.87
2016-09-24T02:03:25.418Z,974.88
2016-09-24T02:04:25.382Z,974.88
2016-09-24T02:05:25.343Z,974.86
2016-09-24T02:06:25.308Z,974.88
2016-09-24T02:07:25.273Z,974.84
2016-09-24T02:08:25.236Z,974.86
2016-09-24T02:09:25.196Z,974.84
2016-09-24T02:10:25.161Z,974.83
2016-09-24T02:11:25.124Z,974.84
2016-09-24T02:12:25.086Z,974.84
2016-09-24T02:13:25.050Z,974.85
2016-09-24T02:14:25.013Z,974.8
2016-09-24T02:15:24.978Z,974.84
2016-09-24T02:16:24.939Z,974.81
2016-09-24T02:17:24.908Z,974.84
2016-09-24T02:18:24.865Z,974.82
2016-09-24T02:19:24.831Z,974.81
2016-09-24T02:20:24.792Z,974.84
2016-09-24T02:21:24.754Z,974.85
2016-09-24T02:22:24.719Z,974.83
2016-09-24T02:23:24.681Z,974.86
2016-09-24T02:24:24.645Z,974.88
2016-09-24T02:25:24.607Z,974.86
2016-09-24T02:26:24.571Z,974.9
2016-09-24T02:27:24.534Z,974.87
2016-09-24T02:28:24.496Z,974.88
2016-09-24T02:29:24.462Z,974.91
2016-09-24T02:30:24.425Z,974.89
2016-09-24T02:31:24.387Z,974.91
2016-09-24T02:32:24.350Z,974.9
2016-09-24T02:33:24.313Z,974.88
2016-09-24T02:34:24.277Z,974.88
2016-09-24T02:35:24.240Z,974.86
2016-09-24T02:36:24.201Z,974.88
2016-09-24T02:37:24.166Z,974.86
2016-09-24T02:38:24.127Z,974.87
2016-09-24T02:39:24.090Z,974.87
2016-09-24T02:40:24.054Z,974.85
2016-09-24T02:41:24.016Z,974.85
2016-09-24T02:42:23.980Z,974.82
2016-09-24T02:43:23.943Z,974.83
2016-09-24T02:44:23.907Z,974.84
2016-09-24T02:45:23.870Z,974.87
2016-09-24T02:46:23.832Z,974.88
2016-09-24T02:47:23.795Z,974.93
2016-09-24T02:48:23.759Z,974.95
2016-09-24T02:49:23.721Z,974.97
2016-09-24T02:50:23.682Z,975
2016-09-24T02:51:23.654Z,974.94
2016-09-24T02:52:23.616Z,974.93
2016-09-24T02:53:23.574Z,974.99
2016-09-24T02:54:23.535Z,974.98
2016-09-24T02:55:23.500Z,974.94
2016-09-24T02:56:23.464Z,974.95
2016-09-24T02:57:23.425Z,974.96
2016-09-24T02:58:23.390Z,974.95
2016-09-24T02:59:23.350Z,974.98
2016-09-24T03:00:23.313Z,974.96
2016-09-24T03:01:23.276Z,974.97
2016-09-24T03:02:23.248Z,974.99
2016-09-24T03:03:23.202Z,974.97
2016-09-24T03:04:23.165Z,974.92
2016-09-24T03:05:23.131Z,974.91
2016-09-24T03:06:23.092Z,974.9
2016-09-24T03:07:23.056Z,974.86
2016-09-24T03:08:23.017Z,974.86
2016-09-24T03:09:22.985Z,974.85
2016-09-24T03:10:22.944Z,974.81
2016-09-24T03:11:22.907Z,974.85
2016-09-24T03:12:22.865Z,974.88
2016-09-24T03:13:22.834Z,974.86
2016-09-24T03:14:22.798Z,974.82
2016-09-24T03:15:22.758Z,974.83
2016-09-24T03:16:22.722Z,974.84
2016-09-24T03:17:22.685Z,974.85
2016-09-24T03:18:22.648Z,974.8
2016-09-24T03:19:22.609Z,974.82
2016-09-24T03:20:22.573Z,974.82
2016-09-24T03:21:22.536Z,974.83
2016-09-24T03:22:22.499Z,974.76
2016-09-24T03:23:22.461Z,974.8
2016-09-24T03:24:22.424Z,974.8
2016-09-24T03:25:22.387Z,974.81
2016-09-24T03:26:22.350Z,974.77
2016-09-24T03:27:22.313Z,974.77
2016-09-24T03:28:22.275Z,974.73
2016-09-24T03:29:22.241Z,974.79
2016-09-24T03:30:22.202Z,974.76
2016-09-24T03:31:22.167Z,974.76
2016-09-24T03:32:22.128Z,974.77
2016-09-24T03:33:22.090Z,974.78
2016-09-24T03:34:22.054Z,974.79
2016-09-24T03:35:22.017Z,974.77
2016-09-24T03:36:21.981Z,974.75
2016-09-24T03:37:21.942Z,974.74
2016-09-24T03:38:21.906Z,974.75
2016-09-24T03:39:21.867Z,974.74
2016-09-24T03:40:21.831Z,974.73
2016-09-24T03:41:21.793Z,974.71
2016-09-24T03:42:21.760Z,974.73
2016-09-24T03:43:21.719Z,974.72
2016-09-24T03:44:21.681Z,974.71
2016-09-24T03:45:21.647Z,974.72
2016-09-24T03:46:21.606Z,974.71
2016-09-24T03:47:21.570Z,974.7
2016-09-24T03:48:21.533Z,974.67
2016-09-24T03:49:21.495Z,974.7
2016-09-24T03:50:21.460Z,974.72
2016-09-24T03:51:21.421Z,974.74
2016-09-24T03:52:21.384Z,974.74
2016-09-24T03:53:21.349Z,974.74
2016-09-24T03:54:21.310Z,974.75
2016-09-24T03:55:21.271Z,974.77
2016-09-24T03:56:21.250Z,974.76
2016-09-24T03:57:21.197Z,974.74
2016-09-24T03:58:21.163Z,974.75
2016-09-24T03:59:21.124Z,974.76
2016-09-24T04:00:21.099Z,974.75
2016-09-24T04:01:21.049Z,974.79
2016-09-24T04:02:21.010Z,974.72
2016-09-24T04:03:20.974Z,974.72
2016-09-24T04:04:20.935Z,974.71
2016-09-24T04:05:20.900Z,974.72
2016-09-24T04:06:20.862Z,974.7
2016-09-24T04:07:20.827Z,974.69
2016-09-24T04:08:20.788Z,974.74
2016-09-24T04:09:20.752Z,974.68
2016-09-24T04:10:20.712Z,974.71
2016-09-24T04:11:20.675Z,974.73
2016-09-24T04:12:20.639Z,974.69
2016-09-24T04:13:20.602Z,974.73
2016-09-24T04:14:20.564Z,974.72
2016-09-24T04:15:20.526Z,974.74
2016-09-24T04:16:20.490Z,974.7
2016-09-24T04:17:20.450Z,974.73
2016-09-24T04:18:20.413Z,974.71
2016-09-24T04:19:20.378Z,974.69
2016-09-24T04:20:20.340Z,974.75
2016-09-24T04:21:20.302Z,974.73
2016-09-24T04:22:20.264Z,974.72
2016-09-24T04:23:20.227Z,974.75
2016-09-24T04:24:20.189Z,974.71
2016-09-24T04:25:20.152Z,974.74
2016-09-24T04:26:20.116Z,974.71
2016-09-24T04:27:20.076Z,974.74
2016-09-24T04:28:20.040Z,974.77
2016-09-24T04:29:20.004Z,974.77
2016-09-24T04:30:19.968Z,974.83
2016-09-24T04:31:19.930Z,974.8
2016-09-24T04:32:19.890Z,974.84
2016-09-24T04:33:19.853Z,974.83
2016-09-24T04:34:19.816Z,974.85
2016-09-24T04:35:19.776Z,974.85
2016-09-24T04:36:19.742Z,974.82
2016-09-24T04:37:19.703Z,974.85
2016-09-24T04:38:19.666Z,974.78
2016-09-24T04:39:19.628Z,974.82
2016-09-24T04:40:19.591Z,974.86
2016-09-24T04:41:19.554Z,974.82
2016-09-24T04:42:19.516Z,974.75
2016-09-24T04:43:19.476Z,974.81
2016-09-24T04:44:19.442Z,974.81
2016-09-24T04:45:19.403Z,974.84
2016-09-24T04:46:19.363Z,974.84
2016-09-24T04:47:19.327Z,974.83
2016-09-24T04:48:19.291Z,974.83
2016-09-24T04:49:19.254Z,974.83
2016-09-24T04:50:19.214Z,974.83
2016-09-24T04:51:19.178Z,974.85
2016-09-24T04:52:19.141Z,974.83
2016-09-24T04:53:19.104Z,974.85
2016-09-24T04:54:19.067Z,974.82
2016-09-24T04:55:19.026Z,974.8
2016-09-24T04:56:18.992Z,974.86
2016-09-24T04:57:18.951Z,974.82
2016-09-24T04:58:18.915Z,974.87
2016-09-24T04:59:18.878Z,974.86
2016-09-24T05:00:18.840Z,974.89
2016-09-24T05:01:18.804Z,974.87
2016-09-24T05:02:18.764Z,974.87
2016-09-24T05:03:18.728Z,974.93
2016-09-24T05:04:18.691Z,974.88
2016-09-24T05:05:18.654Z,974.87
2016-09-24T05:06:18.617Z,974.9
2016-09-24T05:07:18.579Z,974.89
2016-09-24T05:08:18.541Z,974.88
2016-09-24T05:09:18.505Z,974.94
2016-09-24T05:10:18.466Z,974.91
2016-09-24T05:11:18.429Z,974.9
2016-09-24T05:12:18.391Z,974.91
2016-09-24T05:13:18.354Z,974.88
2016-09-24T05:14:18.316Z,974.97
2016-09-24T05:15:18.277Z,974.89
2016-09-24T05:16:18.240Z,974.93
2016-09-24T05:17:18.203Z,974.94
2016-09-24T05:18:18.166Z,974.96
2016-09-24T05:19:18.128Z,974.95
2016-09-24T05:20:18.091Z,974.93
2016-09-24T05:21:18.053Z,975
2016-09-24T05:22:18.014Z,975
2016-09-24T05:23:17.978Z,974.99
2016-09-24T05:24:17.941Z,975.02
2016-09-24T05:25:17.904Z,975.05
2016-09-24T05:26:17.866Z,975.05
2016-09-24T05:27:17.828Z,975.06
2016-09-24T05:28:17.790Z,975.06
2016-09-24T05:29:17.753Z,975.08
2016-09-24T05:30:17.717Z,975.1
2016-09-24T05:31:17.677Z,975.06
2016-09-24T05:32:17.640Z,975.06
2016-09-24T05:33:17.604Z,975.09
2016-09-24T05:34:17.565Z,975.13
2016-09-24T05:35:17.529Z,975.15
2016-09-24T05:36:17.492Z,975.12
2016-09-24T05:37:17.471Z,975.1
2016-09-24T05:38:17.414Z,975.11
2016-09-24T05:39:17.379Z,975.14
2016-09-24T05:40:17.345Z,975.15
2016-09-24T05:41:17.302Z,975.17
2016-09-24T05:42:17.268Z,975.16
2016-09-24T05:43:17.229Z,975.18
2016-09-24T05:44:17.194Z,975.19
2016-09-24T05:45:17.156Z,975.18
2016-09-24T05:46:17.118Z,975.18
2016-09-24T05:47:17.081Z,975.19
2016-09-24T05:48:17.043Z,975.19
2016-09-24T05:49:17.008Z,975.18
2016-09-24T05:50:16.971Z,975.22
2016-09-24T05:51:16.934Z,975.15
2016-09-24T05:52:16.896Z,975.2
2016-09-24T05:53:16.861Z,975.21
2016-09-24T05:54:16.821Z,975.2
2016-09-24T05:55:16.788Z,975.25
2016-09-24T05:56:16.751Z,975.25
2016-09-24T05:57:16.714Z,975.31
2016-09-24T05:58:16.679Z,975.34
2016-09-24T05:59:16.643Z,975.37
2016-09-24T06:00:16.607Z,975.4
2016-09-24T06:01:16.571Z,975.41
2016-09-24T06:02:16.537Z,975.45
2016-09-24T06:03:16.498Z,975.43
2016-09-24T06:04:16.464Z,975.39
2016-09-24T06:05:16.431Z,975.42
2016-09-24T06:06:16.395Z,975.43
2016-09-24T06:07:16.359Z,975.45
2016-09-24T06:08:16.326Z,975.43
2016-09-24T06:09:16.292Z,975.46
2016-09-24T06:10:16.254Z,975.49
2016-09-24T06:11:16.222Z,975.43
2016-09-24T06:12:16.187Z,975.43
2016-09-24T06:13:16.153Z,975.43
2016-09-24T06:14:16.117Z,975.43
2016-09-24T06:15:16.084Z,975.47
2016-09-24T06:16:16.050Z,975.45
2016-09-24T06:17:16.017Z,975.42
2016-09-24T06:18:15.982Z,975.43
2016-09-24T06:19:15.957Z,975.45
2016-09-24T06:20:15.916Z,975.5
2016-09-24T06:21:15.881Z,975.51
2016-09-24T06:22:15.847Z,975.54
2016-09-24T06:23:15.815Z,975.46
2016-09-24T06:24:15.781Z,975.45
2016-09-24T06:25:15.747Z,975.47
2016-09-24T06:26:15.714Z,975.5
2016-09-24T06:27:15.683Z,975.52
2016-09-24T06:28:15.650Z,975.49
2016-09-24T06:29:15.616Z,975.48
2016-09-24T06:30:15.584Z,975.48
2016-09-24T06:31:15.553Z,975.47
2016-09-24T06:32:15.519Z,975.52
2016-09-24T06:33:15.486Z,975.56
2016-09-24T06:34:15.455Z,975.54
2016-09-24T06:35:15.424Z,975.49
2016-09-24T06:36:15.392Z,975.51
2016-09-24T06:37:15.361Z,975.48
2016-09-24T06:38:15.330Z,975.51
2016-09-24T06:39:15.300Z,975.51
2016-09-24T06:40:15.269Z,975.53
2016-09-24T06:41:15.239Z,975.54
2016-09-24T06:42:15.206Z,975.51
2016-09-24T06:43:15.176Z,975.51
2016-09-24T06:44:15.146Z,975.49
2016-09-24T06:45:15.117Z,975.48
2016-09-24T06:46:15.087Z,975.45
2016-09-24T06:47:15.056Z,975.51
2016-09-24T06:48:15.028Z,975.48
2016-09-24T06:49:14.999Z,975.43
2016-09-24T06:50:14.970Z,975.49
2016-09-24T06:51:14.939Z,975.48
2016-09-24T06:52:14.911Z,975.51
2016-09-24T06:53:14.881Z,975.55
2016-09-24T06:54:14.852Z,975.55
2016-09-24T06:55:14.826Z,975.53
2016-09-24T06:56:14.797Z,975.56
2016-09-24T06:57:14.769Z,975.57
2016-09-24T06:58:14.742Z,975.54
2016-09-24T06:59:14.714Z,975.56
2016-09-24T07:00:14.687Z,975.54
2016-09-24T07:01:14.659Z,975.56
2016-09-24T07:02:14.631Z,975.57
2016-09-24T07:03:14.605Z,975.56
2016-09-24T07:04:14.579Z,975.6
2016-09-24T07:05:14.551Z,975.62
2016-09-24T07:06:14.524Z,975.62
2016-09-24T07:07:14.500Z,975.63
2016-09-24T07:08:14.476Z,975.63
2016-09-24T07:09:14.447Z,975.61
2016-09-24T07:10:14.420Z,975.61
2016-09-24T07:11:14.393Z,975.65
2016-09-24T07:12:14.369Z,975.62
2016-09-24T07:13:14.344Z,975.61
2016-09-24T07:14:14.318Z,975.62
2016-09-24T07:15:14.294Z,975.69
2016-09-24T07:16:14.268Z,975.66
2016-09-24T07:17:14.243Z,975.68
2016-09-24T07:18:14.219Z,975.7
2016-09-24T07:19:14.195Z,975.68
2016-09-24T07:20:14.169Z,975.72
2016-09-24T07:21:14.144Z,975.71
2016-09-24T07:22:14.121Z,975.71
2016-09-24T07:23:14.096Z,975.77
2016-09-24T07:24:14.074Z,975.76
2016-09-24T07:25:14.048Z,975.8
2016-09-24T07:26:14.031Z,975.84
2016-09-24T07:27:14.000Z,975.83
2016-09-24T07:28:13.978Z,975.83
2016-09-24T07:29:13.954Z,975.84
2016-09-24T07:30:13.929Z,975.86
2016-09-24T07:31:13.908Z,975.88
2016-09-24T07:32:13.883Z,975.85
2016-09-24T07:33:13.864Z,975.83
2016-09-24T07:34:13.842Z,975.82
2016-09-24T07:35:13.820Z,975.86
2016-09-24T07:36:13.794Z,975.83
2016-09-24T07:37:13.770Z,975.87
2016-09-24T07:38:13.747Z,975.87
2016-09-24T07:39:13.730Z,975.91
2016-09-24T07:40:13.704Z,975.93
2016-09-24T07:41:13.682Z,975.96
2016-09-24T07:42:13.656Z,975.98
2016-09-24T07:43:13.636Z,975.96
2016-09-24T07:44:13.613Z,976
2016-09-24T07:45:13.591Z,976.01
2016-09-24T07:46:13.570Z,976.02
2016-09-24T07:47:13.548Z,976.03
2016-09-24T07:48:13.526Z,976.07
2016-09-24T07:49:13.504Z,976.07
2016-09-24T07:50:13.486Z,976.08
2016-09-24T07:51:13.462Z,976.09
2016-09-24T07:52:13.441Z,976.11
2016-09-24T07:53:13.418Z,976.13
2016-09-24T07:54:13.396Z,976.12
2016-09-24T07:55:13.375Z,976.2
2016-09-24T07:56:13.355Z,976.19
2016-09-24T07:57:13.332Z,976.21
2016-09-24T07:58:13.311Z,976.2
2016-09-24T07:59:13.289Z,976.23
2016-09-24T08:00:13.267Z,976.17
2016-09-24T08:01:13.248Z,976.19
2016-09-24T08:02:13.235Z,976.21
2016-09-24T08:03:13.210Z,976.2
2016-09-24T08:04:13.184Z,976.21
2016-09-24T08:05:13.165Z,976.2
2016-09-24T08:06:13.143Z,976.23
2016-09-24T08:07:13.123Z,976.25
2016-09-24T08:08:13.101Z,976.25
2016-09-24T08:09:13.082Z,976.3
2016-09-24T08:10:13.065Z,976.3
2016-09-24T08:11:13.041Z,976.31
2016-09-24T08:12:13.021Z,976.35
2016-09-24T08:13:12.999Z,976.29
2016-09-24T08:14:12.981Z,976.32
2016-09-24T08:15:12.960Z,976.28
2016-09-24T08:16:12.941Z,976.26
2016-09-24T08:17:12.920Z,976.28
2016-09-24T08:18:12.901Z,976.26
2016-09-24T08:19:12.880Z,976.3
2016-09-24T08:20:12.859Z,976.29
2016-09-24T08:21:12.840Z,976.26
2016-09-24T08:22:12.818Z,976.26
2016-09-24T08:23:12.801Z,976.28
2016-09-24T08:24:12.780Z,976.26
2016-09-24T08:25:12.759Z,976.28
2016-09-24T08:26:12.739Z,976.29
2016-09-24T08:27:12.719Z,976.33
2016-09-24T08:28:12.699Z,976.3
2016-09-24T08:29:12.678Z,976.28
2016-09-24T08:30:12.658Z,976.25
2016-09-24T08:31:12.639Z,976.27
2016-09-24T08:32:12.618Z,976.26
2016-09-24T08:33:12.599Z,976.28
2016-09-24T08:34:12.580Z,976.31
2016-09-24T08:35:12.560Z,976.29
2016-09-24T08:36:12.541Z,976.28
2016-09-24T08:37:12.521Z,976.28
2016-09-24T08:38:12.501Z,976.3
2016-09-24T08:39:12.483Z,976.32
2016-09-24T08:40:12.463Z,976.3
2016-09-24T08:41:12.444Z,976.32
2016-09-24T08:42:12.425Z,976.34
2016-09-24T08:43:12.405Z,976.33
2016-09-24T08:44:12.387Z,976.33
2016-09-24T08:45:12.367Z,976.35
2016-09-24T08:46:12.348Z,976.32
2016-09-24T08:47:12.331Z,976.37
2016-09-24T08:48:12.310Z,976.39
2016-09-24T08:49:12.289Z,976.41
2016-09-24T08:50:12.273Z,976.4
2016-09-24T08:51:12.254Z,976.42
2016-09-24T08:52:12.234Z,976.38
2016-09-24T08:53:12.217Z,976.38
2016-09-24T08:54:12.198Z,976.39
2016-09-24T08:55:12.179Z,976.36
2016-09-24T08:56:12.158Z,976.37
2016-09-24T08:57:12.143Z,976.39
2016-09-24T08:58:12.122Z,976.37
2016-09-24T08:59:12.105Z,976.41
2016-09-24T09:00:12.087Z,976.4
2016-09-24T09:01:12.070Z,976.38
2016-09-24T09:02:12.050Z,976.4
2016-09-24T09:03:12.030Z,976.39
2016-09-24T09:04:12.012Z,976.45
2016-09-24T09:05:11.993Z,976.45
2016-09-24T09:06:11.976Z,976.48
2016-09-24T09:07:11.956Z,976.5
2016-09-24T09:08:11.940Z,976.44
2016-09-24T09:09:11.925Z,976.45
2016-09-24T09:10:11.902Z,976.45
2016-09-24T09:11:11.885Z,976.37
2016-09-24T09:12:11.868Z,976.36
2016-09-24T09:13:11.848Z,976.4
2016-09-24T09:14:11.829Z,976.43
2016-09-24T09:15:11.812Z,976.41
2016-09-24T09:16:11.792Z,976.39
2016-09-24T09:17:11.775Z,976.37
2016-09-24T09:18:11.756Z,976.3
2016-09-24T09:19:11.738Z,976.25
2016-09-24T09:20:11.720Z,976.23
2016-09-24T09:21:11.701Z,976.23
2016-09-24T09:22:11.686Z,976.2
2016-09-24T09:23:11.668Z,976.19
2016-09-24T09:24:11.645Z,976.2
2016-09-24T09:25:11.630Z,976.16
2016-09-24T09:26:11.610Z,976.17
2016-09-24T09:27:11.593Z,976.11
2016-09-24T09:28:11.575Z,976.06
2016-09-24T09:29:11.557Z,976.08
2016-09-24T09:30:11.539Z,976.05
2016-09-24T09:31:11.519Z,976.01
2016-09-24T09:32:11.501Z,976.01
2016-09-24T09:33:11.484Z,976.02
2016-09-24T09:34:11.467Z,975.98
2016-09-24T09:35:11.448Z,976.01
2016-09-24T09:36:11.430Z,976.02
2016-09-24T09:37:11.413Z,975.96
2016-09-24T09:38:11.400Z,975.99
2016-09-24T09:39:11.376Z,976
2016-09-24T09:40:11.361Z,975.97
2016-09-24T09:41:11.342Z,975.95
2016-09-24T09:42:11.327Z,976.06
2016-09-24T09:43:11.307Z,976.23
2016-09-24T09:44:11.289Z,976.28
2016-09-24T09:45:11.272Z,976.26
2016-09-24T09:46:11.254Z,976.27
2016-09-24T09:47:11.238Z,976.3
2016-09-24T09:48:11.220Z,976.24
2016-09-24T09:49:11.201Z,976.3
2016-09-24T09:50:11.186Z,976.33
2016-09-24T09:51:11.167Z,976.34
2016-09-24T09:52:11.153Z,976.37
2016-09-24T09:53:11.132Z,976.4
2016-09-24T09:54:11.113Z,976.43
2016-09-24T09:55:11.096Z,976.44
2016-09-24T09:56:11.079Z,976.42
2016-09-24T09:57:11.062Z,976.42
2016-09-24T09:58:11.044Z,976.4
2016-09-24T09:59:11.026Z,976.4
2016-09-24T10:00:11.009Z,976.31
2016-09-24T10:01:10.992Z,976.35
2016-09-24T10:02:10.976Z,976.43
2016-09-24T10:03:10.955Z,976.42
2016-09-24T10:04:10.937Z,976.37
2016-09-24T10:05:10.919Z,976.39
2016-09-24T10:06:10.902Z,976.37
2016-09-24T10:07:10.884Z,976.46
2016-09-24T10:08:10.864Z,976.41
2016-09-24T10:09:10.848Z,976.42
2016-09-24T10:10:10.830Z,976.42
2016-09-24T10:11:10.811Z,976.44
2016-09-24T10:12:10.793Z,976.42
2016-09-24T10:13:10.773Z,976.41
2016-09-24T10:14:10.757Z,976.41
2016-09-24T10:15:10.738Z,976.36
2016-09-24T10:16:10.727Z,976.34
2016-09-24T10:17:10.700Z,976.34
2016-09-24T10:18:10.681Z,976.25
2016-09-24T10:19:10.665Z,976.19
2016-09-24T10:20:10.650Z,976.11
2016-09-24T10:21:10.629Z,976.03
2016-09-24T10:22:10.608Z,975.98
2016-09-24T10:23:10.588Z,976
2016-09-24T10:24:10.569Z,976.02
2016-09-24T10:25:10.563Z,976.02
2016-09-24T10:26:10.528Z,976
2016-09-24T10:27:10.515Z,975.97
2016-09-24T10:28:10.497Z,975.96
2016-09-24T10:29:10.477Z,975.94
2016-09-24T10:30:10.457Z,975.97
2016-09-24T10:31:10.439Z,975.97
2016-09-24T10:32:10.421Z,975.98
2016-09-24T10:33:10.400Z,975.9
2016-09-24T10:34:10.381Z,975.87
2016-09-24T10:35:10.362Z,975.83
2016-09-24T10:36:10.342Z,975.82
2016-09-24T10:37:10.323Z,975.69
2016-09-24T10:38:10.304Z,975.68
2016-09-24T10:39:10.284Z,975.63
2016-09-24T10:40:10.268Z,975.63
2016-09-24T10:41:10.248Z,975.65
2016-09-24T10:42:10.227Z,975.68
2016-09-24T10:43:10.208Z,975.74
2016-09-24T10:44:10.189Z,975.73
2016-09-24T10:45:10.173Z,975.83
2016-09-24T10:46:10.150Z,975.79
2016-09-24T10:47:10.132Z,975.61
2016-09-24T10:48:10.112Z,975.51
2016-09-24T10:49:10.090Z,975.54
2016-09-24T10:50:10.073Z,975.45
2016-09-24T10:51:10.053Z,975.26
2016-09-24T10:52:10.033Z,975.43
2016-09-24T10:53:10.013Z,975.64
2016-09-24T10:54:09.991Z,975.99
2016-09-24T10:55:09.970Z,976.45
2016-09-24T10:56:09.951Z,976.62
2016-09-24T10:57:09.931Z,976.67
2016-09-24T10:58:09.911Z,976.56
2016-09-24T10:59:09.888Z,976.55
2016-09-24T11:00:09.870Z,976.46
2016-09-24T11:01:09.848Z,976.38
2016-09-24T11:02:09.826Z,976.2
2016-09-24T11:03:09.807Z,976.08
2016-09-24T11:04:09.786Z,975.62
2016-09-24T11:05:09.766Z,975.32
2016-09-24T11:06:09.745Z,975.28
2016-09-24T11:07:09.724Z,975.24
2016-09-24T11:08:09.704Z,975.16
2016-09-24T11:09:09.682Z,975.15
2016-09-24T11:10:09.661Z,975.15
2016-09-24T11:11:09.640Z,975.08
2016-09-24T11:12:09.618Z,975.05
2016-09-24T11:13:09.596Z,974.97
2016-09-24T11:14:09.574Z,974.93
2016-09-24T11:15:09.552Z,974.86
2016-09-24T11:16:09.532Z,974.82
2016-09-24T11:17:09.507Z,974.78
2016-09-24T11:18:09.487Z,975.07
2016-09-24T11:19:09.464Z,975.4
2016-09-24T11:20:09.442Z,975.46
2016-09-24T11:21:09.419Z,975.36
2016-09-24T11:22:09.396Z,974.96
2016-09-24T11:23:09.373Z,974.89
2016-09-24T11:24:09.351Z,974.82
2016-09-24T11:25:09.328Z,974.68
2016-09-24T11:26:09.307Z,974.57
2016-09-24T11:27:09.284Z,974.58
2016-09-24T11:28:09.257Z,974.58
2016-09-24T11:29:09.234Z,974.57
2016-09-24T11:30:09.210Z,974.49
2016-09-24T11:31:09.185Z,974.49
2016-09-24T11:32:09.162Z,974.43
2016-09-24T11:33:09.138Z,974.42
2016-09-24T11:34:09.113Z,974.4
2016-09-24T11:35:09.088Z,974.29
2016-09-24T11:36:09.064Z,974.32
2016-09-24T11:37:09.037Z,974.31
2016-09-24T11:38:09.013Z,974.33
2016-09-24T11:39:08.987Z,974.28
2016-09-24T11:40:08.962Z,974.27
2016-09-24T11:41:08.942Z,974.3
2016-09-24T11:42:08.912Z,974.37
2016-09-24T11:43:08.886Z,974.29
2016-09-24T11:44:08.859Z,974.3
2016-09-24T11:45:08.833Z,974.25
2016-09-24T11:46:08.805Z,974.18
2016-09-24T11:47:08.786Z,974.19
2016-09-24T11:48:08.754Z,974.18
2016-09-24T11:49:08.726Z,974.24
2016-09-24T11:50:08.701Z,974.18
2016-09-24T11:51:08.671Z,974.14
2016-09-24T11:52:08.647Z,974.11
2016-09-24T11:53:08.619Z,974.13
2016-09-24T11:54:08.592Z,974.13
2016-09-24T11:55:08.565Z,974.08
2016-09-24T11:56:08.537Z,974.05
2016-09-24T11:57:08.515Z,974.05
2016-09-24T11:58:08.481Z,974.08
2016-09-24T11:59:08.453Z,974.01
2016-09-24T12:00:08.426Z,973.99
2016-09-24T12:01:08.397Z,973.99
2016-09-24T12:02:08.369Z,973.95
2016-09-24T12:03:08.339Z,973.91
2016-09-24T12:04:08.313Z,973.93
2016-09-24T12:05:08.284Z,973.93
2016-09-24T12:06:08.255Z,973.91
2016-09-24T12:07:08.229Z,973.92
2016-09-24T12:08:08.201Z,973.91
2016-09-24T12:09:08.171Z,973.92
2016-09-24T12:10:08.143Z,973.92
2016-09-24T12:11:08.116Z,973.92
2016-09-24T12:12:08.086Z,973.88
2016-09-24T12:13:08.056Z,973.86
2016-09-24T12:14:08.028Z,973.85
2016-09-24T12:15:08.000Z,973.84
2016-09-24T12:16:07.972Z,973.84
2016-09-24T12:17:07.942Z,973.82
2016-09-24T12:18:07.913Z,973.85
2016-09-24T12:19:07.884Z,973.82
2016-09-24T12:20:07.855Z,973.85
2016-09-24T12:21:07.828Z,973.81
2016-09-24T12:22:07.799Z,973.82
2016-09-24T12:23:07.768Z,973.81
2016-09-24T12:24:07.741Z,973.76
2016-09-24T12:25:07.713Z,973.75
2016-09-24T12:26:07.684Z,973.75
2016-09-24T12:27:07.653Z,973.74
2016-09-24T12:28:07.623Z,973.73
2016-09-24T12:29:07.595Z,973.72
2016-09-24T12:30:07.567Z,973.65
2016-09-24T12:31:07.540Z,973.65